Time;durP1;ratioP1;P1;durP2;ratioP2;P2;SDS_P1;SDS_P2;PMS_P1;PMS_P2;Temp;Humidity;BMP_temperature;BMP_pressure;BME280_temperature;BME280_humidity;BME280_pressure;Samples;Min_cycle;Max_cycle;Signal;HPM_P1;HPM_P2
2022/03/24 00:01:55;;;;;;;5.93;4.73;;;9.40;49.90;;;;;;5017003;28;20245;-90
2022/03/24 00:04:21;;;;;;;5.97;5.03;;;9.80;50.30;;;;;;5017192;28;20255;-90
2022/03/24 00:06:47;;;;;;;6.93;4.97;;;9.30;49.90;;;;;;5017109;28;20229;-90
2022/03/24 00:09:13;;;;;;;5.70;4.90;;;9.30;50.10;;;;;;5016911;28;20257;-90
2022/03/24 00:11:40;;;;;;;6.30;5.00;;;10.10;49.70;;;;;;5034637;28;20172;-90
2022/03/24 00:14:06;;;;;;;5.33;4.67;;;9.20;50.00;;;;;;5016705;28;20199;-89
2022/03/24 00:16:32;;;;;;;5.87;4.90;;;9.20;50.00;;;;;;5016789;28;20263;-90
2022/03/24 00:18:59;;;;;;;6.13;4.70;;;9.10;50.00;;;;;;5016910;28;20207;-89
2022/03/24 00:21:26;;;;;;;6.70;4.67;;;9.00;50.00;;;;;;5016908;28;20612;-89
2022/03/24 00:23:51;;;;;;;5.13;4.53;;;9.00;49.80;;;;;;5016635;28;20266;-89
2022/03/24 00:26:18;;;;;;;5.63;4.63;;;9.80;50.50;;;;;;5016649;28;20279;-89
2022/03/24 00:28:44;;;;;;;7.77;4.43;;;8.90;49.80;;;;;;5016619;28;20619;-90
2022/03/24 00:31:10;;;;;;;6.40;4.80;;;9.20;50.00;;;;;;5016520;28;20174;-90
2022/03/24 00:33:38;;;;;;;5.97;4.20;;;8.80;49.60;;;;;;5016568;28;20203;-92
2022/03/24 00:36:05;;;;;;;6.23;4.63;;;8.20;49.20;;;;;;5017119;28;20210;-91
2022/03/24 00:38:31;;;;;;;5.80;4.30;;;8.80;49.60;;;;;;5017007;28;20227;-91
2022/03/24 00:40:57;;;;;;;5.80;4.80;;;8.80;49.90;;;;;;5034541;28;20172;-91
2022/03/24 00:43:23;;;;;;;5.23;4.40;;;7.70;49.40;;;;;;5016736;28;20168;-91
2022/03/24 00:45:55;;;;;;;5.67;4.80;;;9.80;51.10;;;;;;5016195;28;20179;-91
2022/03/24 00:48:45;;;;;;;7.00;5.20;;;8.70;50.70;;;;;;5016853;28;20618;-90
2022/03/24 00:51:32;;;;;;;8.50;4.83;;;8.10;50.20;;;;;;5016919;28;20175;-90
2022/03/24 00:54:28;;;;;;;5.50;4.67;;;9.10;51.40;;;;;;5032417;28;20222;-90
2022/03/24 00:57:06;;;;;;;5.83;4.97;;;8.70;51.50;;;;;;5033385;28;20180;-92
2022/03/24 00:59:46;;;;;;;6.87;4.90;;;8.70;51.70;;;;;;5016270;28;20203;-91
2022/03/24 01:02:12;;;;;;;5.37;4.67;;;8.50;51.80;;;;;;5016432;28;20168;-91
2022/03/24 01:04:51;;;;;;;5.43;4.67;;;8.90;52.30;;;;;;5016120;28;20179;-91
2022/03/24 01:07:17;;;;;;;7.57;5.50;;;8.40;52.10;;;;;;5016582;28;20631;-91
2022/03/24 01:09:43;;;;;;;6.70;5.43;;;9.50;52.70;;;;;;5016570;28;20176;-91
2022/03/24 01:12:10;;;;;;;6.37;5.60;;;10.00;52.40;;;;;;5016005;28;20191;-90
2022/03/24 01:18:00;;;;;;;6.00;5.00;;;8.30;52.00;;;;;;5029887;28;20562;-91
2022/03/24 01:21:46;;;;;;;;;;;;;;;;;;;;;
2022/03/24 01:24:40;;;;;;;5.73;4.77;;;7.20;51.40;;;;;;4933798;29;20197;-92
2022/03/24 01:27:32;;;;;;;5.50;4.77;;;8.20;52.50;;;;;;4953284;28;20190;-91
2022/03/24 01:36:48;;;;;;;9.40;5.23;;;8.20;52.40;;;;;;4915456;29;20220;-90
2022/03/24 01:39:14;;;;;;;6.53;5.23;;;8.60;53.20;;;;;;4915360;29;20266;-91
2022/03/24 01:41:40;;;;;;;6.27;5.17;;;8.20;53.10;;;;;;4899216;29;20696;-91
2022/03/24 01:44:21;;;;;;;6.33;5.60;;;9.50;54.00;;;;;;4899359;29;20199;-91
2022/03/24 01:47:00;;;;;;;6.93;5.37;;;8.10;53.00;;;;;;4899114;29;20183;-89
2022/03/24 01:49:27;;;;;;;6.27;5.00;;;8.10;52.90;;;;;;4898934;29;20183;-91
2022/03/24 01:51:54;;;;;;;5.40;4.57;;;8.00;52.90;;;;;;4898903;29;20188;-90
2022/03/24 01:54:22;;;;;;;7.33;5.53;;;8.00;53.30;;;;;;4898674;29;20199;-90
2022/03/24 01:56:49;;;;;;;6.93;5.57;;;8.20;53.70;;;;;;4899055;29;20632;-90
2022/03/24 01:59:16;;;;;;;6.87;5.47;;;8.10;53.90;;;;;;4874562;29;20657;-91
2022/03/24 02:01:43;;;;;;;7.57;5.40;;;7.90;53.70;;;;;;4941267;29;20182;-90
2022/03/24 02:04:19;;;;;;;6.70;5.40;;;7.90;53.70;;;;;;4940769;29;20178;-90
2022/03/24 02:06:45;;;;;;;6.20;4.97;;;7.90;53.70;;;;;;4970670;28;20524;-90
2022/03/24 02:09:12;;;;;;;6.70;5.30;;;7.80;54.00;;;;;;5019454;28;20203;-89
2022/03/24 02:11:39;;;;;;;7.50;5.30;;;7.80;54.00;;;;;;5019204;28;20237;-88
2022/03/24 02:14:05;;;;;;;8.17;5.30;;;7.80;54.10;;;;;;5019411;28;20203;-90
2022/03/24 02:16:34;;;;;;;8.93;5.23;;;7.90;54.60;;;;;;5019461;28;20182;-90
2022/03/24 02:19:23;;;;;;;5.70;5.03;;;7.90;54.80;;;;;;5019420;28;20186;-90
2022/03/24 02:21:51;;;;;;;6.67;5.07;;;7.50;54.70;;;;;;5019383;28;20187;-90
2022/03/24 02:24:19;;;;;;;6.10;5.47;;;8.10;55.30;;;;;;5020146;28;20167;-89
2022/03/24 02:26:48;;;;;;;6.10;4.83;;;7.40;54.80;;;;;;5019364;28;20267;-90
2022/03/24 02:29:15;;;;;;;6.50;5.20;;;7.30;55.00;;;;;;5019562;28;20262;-91
2022/03/24 02:31:45;;;;;;;6.37;5.40;;;7.40;55.10;;;;;;5019388;28;20195;-90
2022/03/24 02:36:58;;;;;;;6.83;5.07;;;7.50;55.20;;;;;;5036918;28;20547;-90
2022/03/24 02:39:24;;;;;;;5.77;5.17;;;7.50;55.20;;;;;;5036362;28;20620;-89
2022/03/24 02:41:55;;;;;;;6.17;5.37;;;7.40;55.20;;;;;;5036463;28;20199;-90
2022/03/24 02:44:23;;;;;;;6.90;5.17;;;7.40;55.00;;;;;;5018412;28;20207;-90
2022/03/24 02:46:51;;;;;;;9.53;6.50;;;7.80;55.60;;;;;;5019117;28;20176;-90
2022/03/24 02:49:19;;;;;;;8.60;6.80;;;7.30;55.30;;;;;;5036226;28;20197;-89
2022/03/24 02:51:46;;;;;;;8.70;6.80;;;8.40;56.20;;;;;;5018689;28;20264;-90
2022/03/24 02:54:13;;;;;;;6.47;5.33;;;7.10;55.50;;;;;;5018476;28;20254;-90
2022/03/24 02:56:42;;;;;;;8.50;5.57;;;8.20;56.70;;;;;;5018806;28;20267;-90
2022/03/24 02:59:09;;;;;;;6.50;5.17;;;8.30;57.50;;;;;;5018450;28;20262;-90
2022/03/24 03:01:41;;;;;;;5.90;5.00;;;6.80;56.50;;;;;;5018925;28;20568;-90
2022/03/24 03:04:07;;;;;;;6.10;5.40;;;6.70;56.90;;;;;;5018788;28;20639;-90
2022/03/24 03:06:34;;;;;;;5.47;4.43;;;6.70;56.80;;;;;;5022717;28;20175;-90
2022/03/24 03:09:02;;;;;;;8.77;5.40;;;8.10;58.50;;;;;;5038442;28;20176;-90
2022/03/24 03:11:30;;;;;;;6.40;4.70;;;6.80;57.40;;;;;;5040710;28;20195;-91
2022/03/24 03:13:57;;;;;;;5.03;4.50;;;8.20;58.50;;;;;;5042784;28;20208;-90
2022/03/24 03:16:23;;;;;;;6.73;5.10;;;8.10;58.70;;;;;;5038141;22;20644;-62
2022/03/24 03:18:49;;;;;;;7.40;6.60;;;6.90;57.70;;;;;;5014735;28;20198;-62
2022/03/24 03:21:16;;;;;;;7.47;6.20;;;6.90;58.00;;;;;;5014546;28;20180;-64
2022/03/24 03:23:43;;;;;;;7.40;5.90;;;6.80;58.10;;;;;;5014388;28;20169;-62
2022/03/24 03:26:10;;;;;;;7.83;6.70;;;6.80;58.10;;;;;;5014486;28;20658;-62
2022/03/24 03:28:36;;;;;;;7.20;6.47;;;6.60;58.20;;;;;;4996854;28;20250;-64
2022/03/24 03:31:02;;;;;;;8.37;5.70;;;6.60;58.50;;;;;;5014476;28;20180;-62
2022/03/24 03:33:29;;;;;;;7.07;5.60;;;6.50;58.60;;;;;;5014208;28;20204;-63
2022/03/24 03:35:55;;;;;;;7.60;6.43;;;6.50;58.60;;;;;;5014353;28;20226;-62
2022/03/24 03:38:21;;;;;;;7.03;5.87;;;6.40;58.70;;;;;;5014613;28;20188;-63
2022/03/24 03:40:47;;;;;;;8.63;6.60;;;6.50;58.90;;;;;;5016607;28;20171;-62
2022/03/24 03:43:14;;;;;;;7.10;6.33;;;6.40;58.90;;;;;;5016238;28;20260;-63
2022/03/24 03:45:41;;;;;;;9.47;6.27;;;6.30;58.80;;;;;;5015714;28;20176;-64
2022/03/24 03:48:07;;;;;;;6.87;5.20;;;6.20;59.40;;;;;;5014067;28;20193;-62
2022/03/24 03:50:33;;;;;;;7.53;5.50;;;6.10;59.60;;;;;;5014047;28;20223;-62
2022/03/24 03:52:59;;;;;;;6.23;5.30;;;6.10;60.20;;;;;;5013707;28;20287;-63
2022/03/24 03:55:24;;;;;;;6.80;5.53;;;6.00;60.40;;;;;;5013943;28;20255;-63
2022/03/24 03:57:50;;;;;;;6.73;5.80;;;6.10;60.60;;;;;;5013883;28;20169;-61
2022/03/24 04:03:03;;;;;;;8.00;5.93;;;6.10;60.90;;;;;;5013939;28;20218;-62
2022/03/24 04:05:30;;;;;;;7.33;5.80;;;6.00;61.00;;;;;;5013809;28;20169;-63
2022/03/24 04:07:56;;;;;;;9.07;6.20;;;6.00;61.70;;;;;;5013610;28;20222;-63
2022/03/24 04:10:22;;;;;;;6.87;5.50;;;5.90;61.40;;;;;;5013822;28;20177;-62
2022/03/24 04:12:48;;;;;;;7.67;5.03;;;5.90;61.40;;;;;;5013302;28;20200;-61
2022/03/24 04:15:13;;;;;;;6.23;5.50;;;5.90;61.40;;;;;;5013525;28;20176;-61
2022/03/24 04:17:39;;;;;;;6.53;5.57;;;5.90;61.70;;;;;;5013497;28;20192;-64
2022/03/24 04:20:07;;;;;;;6.43;4.97;;;6.00;62.50;;;;;;5013340;28;20326;-61
2022/03/24 04:22:33;;;;;;;6.97;5.20;;;6.00;62.20;;;;;;5012352;28;20179;-61
2022/03/24 04:24:58;;;;;;;6.53;5.20;;;6.00;62.50;;;;;;5013453;28;20560;-62
2022/03/24 04:27:24;;;;;;;6.27;5.13;;;5.90;63.20;;;;;;5013449;28;20842;-60
2022/03/24 04:29:49;;;;;;;8.07;6.10;;;5.90;63.40;;;;;;5013253;28;20195;-60
2022/03/24 04:32:15;;;;;;;5.83;5.00;;;6.00;63.40;;;;;;5013138;28;20165;-61
2022/03/24 04:34:41;;;;;;;9.33;5.00;;;5.90;63.30;;;;;;5013215;28;20260;-57
2022/03/24 04:37:06;;;;;;;7.20;5.53;;;5.80;64.00;;;;;;5013228;28;20183;-60
2022/03/24 04:39:33;;;;;;;6.20;5.07;;;5.70;64.60;;;;;;5013138;28;20696;-61
2022/03/24 04:41:58;;;;;;;6.73;5.00;;;5.70;64.70;;;;;;5011851;28;20184;-61
2022/03/24 04:44:24;;;;;;;6.63;5.40;;;5.60;65.00;;;;;;5012857;28;20585;-61
2022/03/24 04:46:50;;;;;;;7.47;5.20;;;5.50;65.20;;;;;;5013115;28;20548;-59
2022/03/24 04:49:16;;;;;;;6.77;5.50;;;5.50;65.60;;;;;;5012918;28;20196;-61
2022/03/24 04:51:42;;;;;;;8.00;5.40;;;5.50;65.90;;;;;;5011709;28;20268;-60
2022/03/24 04:54:08;;;;;;;5.90;5.30;;;5.50;65.70;;;;;;5012687;28;20689;-60
2022/03/24 04:56:34;;;;;;;6.40;5.13;;;5.50;65.80;;;;;;5012955;28;20872;-62
2022/03/24 04:59:00;;;;;;;7.47;4.90;;;5.60;65.60;;;;;;5012802;28;20224;-59
2022/03/24 05:01:25;;;;;;;6.87;5.20;;;5.60;65.20;;;;;;4995214;28;20593;-62
2022/03/24 05:03:51;;;;;;;7.27;5.23;;;5.60;65.50;;;;;;5012485;28;20177;-62
2022/03/24 05:06:17;;;;;;;7.10;5.10;;;5.50;65.60;;;;;;5012599;28;20199;-61
2022/03/24 05:08:42;;;;;;;7.87;5.03;;;5.50;65.10;;;;;;5012635;28;20218;-62
2022/03/24 05:11:08;;;;;;;5.40;4.47;;;5.50;65.30;;;;;;5012552;28;20168;-62
2022/03/24 05:13:33;;;;;;;6.57;5.40;;;5.50;65.10;;;;;;5012271;28;20394;-62
2022/03/24 05:15:59;;;;;;;6.07;4.93;;;5.50;65.30;;;;;;5012610;28;20185;-59
2022/03/24 05:18:24;;;;;;;5.70;4.80;;;5.50;65.40;;;;;;5012520;28;20272;-60
2022/03/24 05:20:51;;;;;;;6.23;5.63;;;5.50;65.50;;;;;;5012426;28;20173;-61
2022/03/24 05:23:16;;;;;;;8.90;7.03;;;5.50;65.90;;;;;;5012145;28;20184;-61
2022/03/24 05:25:44;;;;;;;10.00;6.83;;;5.50;66.50;;;;;;5012425;28;20199;-61
2022/03/24 05:28:10;;;;;;;8.93;6.70;;;5.50;66.80;;;;;;5012314;28;20673;-57
2022/03/24 05:30:36;;;;;;;8.43;6.60;;;5.50;67.00;;;;;;5012710;28;20173;-60
2022/03/24 05:33:02;;;;;;;8.30;6.50;;;5.40;67.10;;;;;;5011613;28;20196;-60
2022/03/24 05:35:29;;;;;;;9.93;6.30;;;5.40;67.60;;;;;;5012255;28;20693;-60
2022/03/24 05:37:55;;;;;;;9.87;6.90;;;5.30;68.00;;;;;;5012194;28;20589;-62
2022/03/24 05:40:21;;;;;;;6.60;5.90;;;5.20;68.60;;;;;;5012187;28;20171;-61
2022/03/24 05:42:47;;;;;;;6.87;5.33;;;5.30;68.70;;;;;;5011870;28;20654;-62
2022/03/24 05:45:12;;;;;;;8.40;6.30;;;5.40;68.40;;;;;;5012249;28;20625;-61
2022/03/24 05:47:38;;;;;;;6.80;5.67;;;5.50;68.20;;;;;;5012059;28;20661;-60
2022/03/24 05:50:04;;;;;;;9.30;6.30;;;5.50;68.40;;;;;;5012062;28;20180;-61
2022/03/24 05:52:31;;;;;;;10.33;7.47;;;5.60;68.30;;;;;;5011743;28;20192;-59
2022/03/24 05:54:57;;;;;;;8.10;6.30;;;5.70;68.30;;;;;;5012126;28;20164;-60
2022/03/24 05:57:23;;;;;;;6.13;5.50;;;5.80;68.20;;;;;;5012124;28;20160;-61
2022/03/24 05:59:49;;;;;;;6.93;5.73;;;5.80;67.30;;;;;;5066828;22;20243;-48
2022/03/24 06:02:15;;;;;;;6.43;5.33;;;5.90;66.90;;;;;;5031066;28;20174;-52
2022/03/24 06:04:42;;;;;;;5.83;5.23;;;6.00;66.50;;;;;;5031530;28;20191;-52
2022/03/24 06:07:10;;;;;;;10.03;6.43;;;6.10;66.20;;;;;;5031630;28;20172;-52
2022/03/24 06:09:36;;;;;;;10.43;6.17;;;6.10;65.90;;;;;;5031517;28;20190;-47
2022/03/24 06:12:02;;;;;;;8.40;5.57;;;6.30;65.80;;;;;;5031413;28;20652;-51
2022/03/24 06:14:27;;;;;;;7.57;5.77;;;6.30;65.50;;;;;;5031369;28;20176;-49
2022/03/24 06:16:53;;;;;;;7.40;5.70;;;6.10;66.90;;;;;;5031451;28;20511;-51
2022/03/24 06:19:20;;;;;;;8.23;6.03;;;6.00;67.90;;;;;;5031448;28;20723;-51
2022/03/24 06:21:45;;;;;;;6.33;5.40;;;6.00;68.90;;;;;;5031562;28;20172;-51
2022/03/24 06:24:11;;;;;;;7.57;5.90;;;6.10;69.20;;;;;;5031107;28;20698;-51
2022/03/24 06:26:37;;;;;;;9.77;6.13;;;6.20;69.00;;;;;;5031504;28;20180;-49
2022/03/24 06:29:03;;;;;;;7.23;5.60;;;6.20;68.90;;;;;;5031390;28;20549;-52
2022/03/24 06:31:30;;;;;;;6.20;5.20;;;6.20;68.80;;;;;;5031358;28;20186;-53
2022/03/24 06:33:56;;;;;;;6.63;5.47;;;6.30;68.60;;;;;;5031098;28;20261;-51
2022/03/24 06:36:22;;;;;;;7.30;5.37;;;6.40;68.10;;;;;;5031433;28;20172;-49
2022/03/24 06:38:47;;;;;;;7.43;6.03;;;6.50;68.10;;;;;;5031148;28;20198;-53
2022/03/24 06:41:14;;;;;;;5.70;5.10;;;6.70;67.70;;;;;;5031349;28;20187;-50
2022/03/24 06:43:41;;;;;;;6.03;5.43;;;6.60;67.60;;;;;;5031047;28;20233;-47
2022/03/24 06:46:07;;;;;;;6.30;5.57;;;6.70;68.00;;;;;;5030044;28;20191;-48
2022/03/24 06:48:32;;;;;;;5.77;5.17;;;6.30;67.70;;;;;;5034857;28;20660;-50
2022/03/24 06:50:58;;;;;;;5.77;5.10;;;6.80;68.00;;;;;;5034598;28;20637;-47
2022/03/24 06:53:23;;;;;;;5.60;5.00;;;6.80;68.10;;;;;;5033531;28;20203;-50
2022/03/24 06:55:49;;;;;;;7.70;5.10;;;6.80;68.20;;;;;;5021048;28;20186;-50
2022/03/24 06:58:14;;;;;;;5.20;4.70;;;6.90;68.20;;;;;;5034608;28;20271;-51
2022/03/24 07:00:40;;;;;;;6.33;5.00;;;7.00;68.10;;;;;;5034338;28;20198;-52
2022/03/24 07:03:06;;;;;;;6.10;5.03;;;7.00;68.40;;;;;;5034354;28;20310;-50
2022/03/24 07:05:31;;;;;;;6.43;5.17;;;7.10;67.70;;;;;;5034473;28;20637;-45
2022/03/24 07:07:57;;;;;;;6.03;5.10;;;7.30;67.70;;;;;;5034342;28;20204;-48
2022/03/24 07:10:23;;;;;;;7.47;5.37;;;7.40;66.20;;;;;;5034206;28;20638;-51
2022/03/24 07:12:49;;;;;;;5.60;5.00;;;7.50;66.40;;;;;;5034001;28;20278;-51
2022/03/24 07:15:15;;;;;;;6.27;5.00;;;7.60;66.20;;;;;;5034415;28;20172;-48
2022/03/24 07:17:41;;;;;;;6.50;5.20;;;7.70;65.20;;;;;;5034113;28;20259;-47
2022/03/24 07:20:08;;;;;;;5.73;5.00;;;7.90;65.00;;;;;;5034288;28;20199;-46
2022/03/24 07:22:37;;;;;;;7.07;5.30;;;8.10;64.40;;;;;;5016051;28;20844;-51
2022/03/24 07:25:06;;;;;;;6.30;5.70;;;8.30;64.40;;;;;;5034283;28;20660;-49
2022/03/24 07:27:31;;;;;;;6.73;4.93;;;8.40;64.70;;;;;;5034059;28;20167;-48
2022/03/24 07:29:57;;;;;;;5.60;4.97;;;8.50;64.70;;;;;;5033704;28;20558;-52
2022/03/24 07:32:22;;;;;;;6.30;5.60;;;8.70;63.60;;;;;;5033768;28;20211;-47
2022/03/24 07:34:48;;;;;;;6.63;5.73;;;8.90;63.20;;;;;;5031392;28;20172;-47
2022/03/24 07:37:14;;;;;;;7.87;6.30;;;9.00;62.80;;;;;;5028020;28;20183;-47
2022/03/24 07:39:40;;;;;;;8.37;6.70;;;9.20;61.40;;;;;;5033430;28;20668;-45
2022/03/24 07:42:06;;;;;;;8.83;6.53;;;9.30;61.50;;;;;;5033827;28;20191;-48
2022/03/24 07:44:32;;;;;;;8.13;6.90;;;9.40;62.50;;;;;;5033223;28;20615;-48
2022/03/24 07:46:57;;;;;;;9.87;7.57;;;9.50;62.30;;;;;;5044896;28;20242;-50
2022/03/24 07:49:23;;;;;;;9.40;7.30;;;9.60;62.60;;;;;;5035950;28;20195;-47
2022/03/24 07:51:49;;;;;;;9.37;7.23;;;9.70;62.90;;;;;;5024797;28;20517;-47
2022/03/24 07:54:14;;;;;;;10.97;8.10;;;9.70;64.70;;;;;;5024400;28;20302;-50
2022/03/24 07:56:40;;;;;;;8.90;8.00;;;9.80;66.00;;;;;;5028355;28;20259;-50
2022/03/24 07:59:06;;;;;;;10.23;9.13;;;9.80;65.90;;;;;;5032786;28;20204;-47
2022/03/24 08:01:36;;;;;;;9.73;7.80;;;9.90;65.10;;;;;;5031871;28;20541;-49
2022/03/24 08:04:04;;;;;;;11.97;8.93;;;9.90;64.50;;;;;;5032570;28;20587;-48
2022/03/24 08:06:30;;;;;;;10.23;8.93;;;9.90;65.20;;;;;;5032473;28;20588;-49
2022/03/24 08:08:57;;;;;;;10.67;8.80;;;9.90;64.00;;;;;;5032592;28;20572;-50
2022/03/24 08:11:23;;;;;;;9.77;8.67;;;10.00;62.60;;;;;;5032409;28;20180;-50
2022/03/24 08:13:53;;;;;;;10.73;8.20;;;10.20;60.30;;;;;;5032233;28;20206;-50
2022/03/24 08:16:24;;;;;;;10.50;7.77;;;10.40;60.00;;;;;;5033271;28;20178;-49
2022/03/24 08:18:50;;;;;;;8.73;7.83;;;10.60;59.60;;;;;;5033360;28;20253;-53
2022/03/24 08:21:16;;;;;;;10.10;8.20;;;10.70;58.50;;;;;;5033263;28;20180;-48
2022/03/24 08:23:41;;;;;;;9.37;8.03;;;10.80;57.50;;;;;;5032879;28;20262;-49
2022/03/24 08:26:07;;;;;;;10.50;8.57;;;10.90;57.50;;;;;;5033198;28;20198;-50
2022/03/24 08:28:33;;;;;;;8.33;7.43;;;10.90;55.70;;;;;;5033152;28;20203;-51
2022/03/24 08:30:58;;;;;;;8.53;7.73;;;11.10;57.20;;;;;;5033016;28;20183;-52
2022/03/24 08:33:24;;;;;;;8.70;7.20;;;11.10;56.90;;;;;;5032605;28;20282;-51
2022/03/24 08:35:50;;;;;;;9.53;7.77;;;11.20;56.10;;;;;;5033014;28;20708;-50
2022/03/24 08:38:15;;;;;;;8.17;7.27;;;11.20;55.70;;;;;;5032844;28;20172;-49
2022/03/24 08:40:41;;;;;;;7.93;6.77;;;11.30;55.70;;;;;;5032824;28;20707;-53
2022/03/24 08:43:07;;;;;;;8.23;7.17;;;11.50;54.80;;;;;;5032458;28;20234;-50
2022/03/24 08:45:33;;;;;;;9.07;7.13;;;11.70;56.20;;;;;;5032880;28;20582;-47
2022/03/24 08:47:59;;;;;;;7.90;7.10;;;11.90;55.40;;;;;;5032682;28;20250;-49
2022/03/24 08:50:25;;;;;;;9.93;7.27;;;12.00;55.40;;;;;;5032394;28;20199;-52
2022/03/24 08:52:50;;;;;;;8.20;6.90;;;12.20;54.70;;;;;;5014732;28;20199;-48
2022/03/24 08:55:16;;;;;;;8.33;7.43;;;12.30;54.00;;;;;;5032404;28;20172;-49
2022/03/24 08:57:43;;;;;;;9.90;7.10;;;12.50;53.10;;;;;;5032679;28;20172;-48
2022/03/24 09:00:15;;;;;;;7.60;6.43;;;12.60;53.40;;;;;;5032191;28;20218;-52
2022/03/24 09:02:43;;;;;;;8.43;6.77;;;12.60;51.80;;;;;;5032227;28;20644;-52
2022/03/24 09:05:09;;;;;;;8.27;6.97;;;12.70;51.90;;;;;;5032082;28;20183;-55
2022/03/24 09:07:36;;;;;;;9.53;7.17;;;12.70;51.90;;;;;;5031712;28;20241;-49
2022/03/24 09:10:05;;;;;;;7.47;6.67;;;12.80;51.50;;;;;;5031874;28;20245;-51
2022/03/24 09:12:31;;;;;;;7.17;6.33;;;12.80;51.50;;;;;;5031974;28;20225;-50
2022/03/24 09:14:57;;;;;;;8.00;7.20;;;13.00;50.00;;;;;;5032467;28;20317;-52
2022/03/24 09:17:22;;;;;;;7.53;6.57;;;13.10;51.30;;;;;;5032256;28;20230;-53
2022/03/24 09:19:48;;;;;;;8.30;6.93;;;13.40;50.30;;;;;;5032096;28;20724;-55
2022/03/24 09:22:14;;;;;;;8.30;7.50;;;13.60;49.70;;;;;;5031595;28;20653;-50
2022/03/24 09:24:39;;;;;;;8.67;7.50;;;13.80;50.00;;;;;;5031977;28;20280;-53
2022/03/24 09:27:05;;;;;;;8.77;7.10;;;14.00;50.20;;;;;;5032006;28;20205;-53
2022/03/24 09:29:31;;;;;;;10.80;7.20;;;14.20;50.00;;;;;;5031990;28;20576;-52
2022/03/24 09:31:57;;;;;;;8.47;7.67;;;14.30;51.70;;;;;;5032095;28;20173;-49
2022/03/24 09:34:23;;;;;;;9.07;7.80;;;14.40;51.70;;;;;;5031658;28;20672;-54
2022/03/24 09:36:49;;;;;;;10.63;8.20;;;14.50;50.70;;;;;;5031653;28;20257;-52
2022/03/24 09:39:15;;;;;;;9.90;8.10;;;14.70;51.90;;;;;;5031642;28;20286;-52
2022/03/24 09:41:47;;;;;;;11.27;8.23;;;14.90;51.80;;;;;;5031593;28;20676;-49
2022/03/24 09:44:14;;;;;;;9.40;8.40;;;15.10;51.30;;;;;;5031460;28;20182;-53
2022/03/24 09:46:40;;;;;;;9.83;8.50;;;15.20;51.70;;;;;;5031680;28;20256;-53
2022/03/24 09:49:10;;;;;;;11.30;8.17;;;15.40;52.50;;;;;;5031351;28;20200;-50
2022/03/24 09:51:39;;;;;;;9.67;8.27;;;15.70;51.80;;;;;;5031450;28;20214;-52
2022/03/24 09:54:07;;;;;;;13.27;9.47;;;16.00;50.40;;;;;;5031098;28;20273;-50
2022/03/24 09:56:32;;;;;;;11.33;9.47;;;16.20;51.30;;;;;;5031471;28;20651;-53
2022/03/24 09:58:58;;;;;;;10.67;9.00;;;16.50;49.30;;;;;;5031109;28;20207;-54
2022/03/24 10:01:23;;;;;;;10.83;8.87;;;16.70;49.30;;;;;;5031630;28;20648;-55
2022/03/24 10:04:05;;;;;;;9.87;8.93;;;16.80;52.50;;;;;;5031212;28;20199;-52
2022/03/24 10:06:31;;;;;;;10.30;9.20;;;17.30;49.70;;;;;;5031664;28;20187;-48
2022/03/24 10:08:57;;;;;;;12.10;9.00;;;17.50;48.70;;;;;;5031423;28;20215;-50
2022/03/24 10:11:25;;;;;;;14.93;9.73;;;17.80;47.20;;;;;;5030752;28;20169;-48
2022/03/24 10:13:57;;;;;;;17.93;9.57;;;18.10;46.50;;;;;;5030640;28;20243;-53
2022/03/24 10:16:38;;;;;;;10.53;9.43;;;18.60;46.10;;;;;;5031497;28;20572;-55
2022/03/24 10:19:06;;;;;;;12.23;9.63;;;19.10;46.20;;;;;;5031011;28;20242;-53
2022/03/24 10:21:38;;;;;;;12.10;9.83;;;19.60;44.50;;;;;;5034767;28;20549;-54
2022/03/24 10:24:15;;;;;;;11.47;9.60;;;19.70;44.70;;;;;;5034662;28;20191;-54
2022/03/24 10:26:44;;;;;;;11.35;9.60;;;20.50;43.50;;;;;;5035320;28;20172;-54
2022/03/24 10:29:21;;;;;;;10.43;9.45;;;21.40;40.60;;;;;;5035256;28;20198;-56
2022/03/24 10:31:54;;;;;;;10.20;9.23;;;22.40;40.20;;;;;;5034831;28;20191;-56
2022/03/24 10:34:30;;;;;;;11.63;9.60;;;23.20;39.00;;;;;;5034892;28;20207;-54
2022/03/24 10:36:56;;;;;;;12.40;9.10;;;24.00;38.70;;;;;;5034755;28;20218;-54
2022/03/24 10:39:26;;;;;;;11.15;9.45;;;24.90;36.60;;;;;;5034958;28;20192;-53
2022/03/24 10:41:52;;;;;;;10.15;9.23;;;26.40;33.80;;;;;;5035022;28;20160;-52
2022/03/24 10:44:18;;;;;;;11.52;9.13;;;28.10;32.00;;;;;;5035033;28;20514;-52
2022/03/24 10:46:44;;;;;;;10.45;9.25;;;30.20;30.20;;;;;;5034729;28;20538;-54
2022/03/24 10:49:23;;;;;;;10.00;9.00;;;31.30;28.90;;;;;;5034478;28;20286;-53
2022/03/24 10:51:49;;;;;;;9.73;8.60;;;32.10;27.70;;;;;;5016446;28;20553;-54
2022/03/24 10:54:18;;;;;;;9.85;8.98;;;32.70;27.90;;;;;;5034387;28;20204;-54
2022/03/24 10:56:51;;;;;;;9.70;8.50;;;33.40;26.70;;;;;;5034299;28;20244;-54
2022/03/24 10:59:17;;;;;;;9.40;8.43;;;35.10;26.60;;;;;;5035015;28;20291;-55
2022/03/24 11:01:43;;;;;;;9.48;8.68;;;35.50;26.30;;;;;;5034306;28;20208;-51
2022/03/24 11:04:09;;;;;;;9.05;8.15;;;36.00;25.20;;;;;;5034343;28;20190;-54
2022/03/24 11:06:34;;;;;;;9.55;8.55;;;37.30;24.80;;;;;;5034636;28;20262;-54
2022/03/24 11:09:01;;;;;;;8.82;7.90;;;38.80;23.20;;;;;;5034457;28;20195;-53
2022/03/24 11:11:28;;;;;;;9.15;8.30;;;39.50;23.20;;;;;;5034519;28;20175;-52
2022/03/24 11:14:02;;;;;;;8.55;7.75;;;39.50;22.40;;;;;;5034070;28;20203;-51
2022/03/24 11:16:30;;;;;;;9.27;8.38;;;38.90;22.90;;;;;;5034368;28;20174;-54
2022/03/24 11:18:57;;;;;;;7.65;6.95;;;39.80;22.80;;;;;;5034074;28;20226;-53
2022/03/24 11:21:33;;;;;;;8.73;7.82;;;40.70;21.10;;;;;;5034237;28;20549;-54
2022/03/24 11:23:58;;;;;;;10.20;8.57;;;41.60;19.70;;;;;;5034026;28;20195;-53
2022/03/24 11:26:25;;;;;;;9.02;8.20;;;41.00;20.90;;;;;;5034113;28;20183;-54
2022/03/24 11:28:53;;;;;;;9.32;7.90;;;39.70;21.70;;;;;;5033857;28;20195;-50
2022/03/24 11:31:19;;;;;;;7.78;7.07;;;39.80;20.30;;;;;;5033283;28;20172;-54
2022/03/24 11:33:47;;;;;;;9.18;7.88;;;40.90;20.60;;;;;;5033571;28;20203;-54
2022/03/24 11:36:15;;;;;;;8.57;7.78;;;40.50;18.90;;;;;;5033492;28;20212;-54
2022/03/24 11:38:42;;;;;;;8.40;7.70;;;40.40;18.90;;;;;;5033899;28;20192;-54
2022/03/24 11:41:38;;;;;;;9.35;8.48;;;39.70;19.90;;;;;;5033598;28;20179;-54
2022/03/24 11:44:32;;;;;;;8.95;8.05;;;38.90;20.60;;;;;;5029162;28;20192;-54
2022/03/24 11:47:00;;;;;;;9.48;8.48;;;37.10;21.20;;;;;;4991829;28;20231;-53
2022/03/24 11:49:27;;;;;;;9.02;8.13;;;36.10;21.60;;;;;;4992005;28;20743;-53
2022/03/24 11:51:58;;;;;;;8.13;7.43;;;36.50;21.30;;;;;;4991236;28;20189;-53
2022/03/24 11:54:52;;;;;;;7.53;6.82;;;37.90;18.80;;;;;;4991606;28;20215;-53
2022/03/24 11:57:26;;;;;;;7.90;7.20;;;39.00;19.00;;;;;;4991245;28;20264;-52
2022/03/24 12:00:12;;;;;;;9.65;7.82;;;38.30;20.80;;;;;;5022881;23;20273;-59
2022/03/24 12:02:45;;;;;;;8.10;6.80;;;37.50;19.40;;;;;;5036094;28;20679;-59
2022/03/24 12:05:12;;;;;;;7.75;6.78;;;37.60;20.20;;;;;;5053252;28;20262;-59
2022/03/24 12:07:38;;;;;;;7.78;6.93;;;38.10;19.20;;;;;;5053189;28;20519;-61
2022/03/24 12:10:08;;;;;;;6.90;6.20;;;38.30;19.10;;;;;;5053296;28;20194;-59
2022/03/24 12:12:36;;;;;;;6.80;6.13;;;37.80;17.00;;;;;;5052958;28;20286;-59
2022/03/24 12:15:15;;;;;;;7.20;6.03;;;37.10;17.60;;;;;;5053720;28;20265;-60
2022/03/24 12:18:01;;;;;;;6.80;6.13;;;36.80;17.30;;;;;;5054795;28;20573;-61
2022/03/24 12:20:27;;;;;;;6.80;6.00;;;36.80;19.00;;;;;;5053626;28;20194;-60
2022/03/24 12:22:59;;;;;;;6.43;5.82;;;35.70;19.00;;;;;;5053150;28;20750;-57
2022/03/24 12:25:26;;;;;;;6.82;6.07;;;35.80;18.40;;;;;;5053099;28;20254;-59
2022/03/24 12:27:56;;;;;;;6.93;6.03;;;35.60;18.70;;;;;;5052692;28;20171;-58
2022/03/24 12:30:24;;;;;;;6.53;5.90;;;36.20;16.70;;;;;;5052396;28;20233;-57
2022/03/24 12:33:05;;;;;;;6.40;5.80;;;36.30;17.80;;;;;;5052111;28;20195;-61
2022/03/24 12:35:43;;;;;;;6.55;5.95;;;36.70;17.00;;;;;;5052618;28;20559;-61
2022/03/24 12:38:53;;;;;;;7.00;6.40;;;37.10;18.40;;;;;;5052701;28;20224;-61
2022/03/24 12:41:21;;;;;;;5.95;5.45;;;35.20;17.80;;;;;;4952106;28;20651;-59
2022/03/24 12:43:49;;;;;;;6.72;5.40;;;34.70;17.00;;;;;;4951641;29;20182;-59
2022/03/24 12:46:24;;;;;;;6.60;6.00;;;33.90;19.00;;;;;;4952201;29;20187;-61
2022/03/24 12:48:50;;;;;;;6.85;6.10;;;32.90;19.90;;;;;;4952472;29;20174;-59
2022/03/24 12:51:25;;;;;;;7.40;6.60;;;32.80;18.40;;;;;;4952111;29;20604;-59
2022/03/24 12:53:56;;;;;;;7.47;6.88;;;32.70;21.80;;;;;;4952154;29;20197;-60
2022/03/24 12:56:24;;;;;;;7.30;6.60;;;32.80;22.60;;;;;;4952035;29;20180;-61
2022/03/24 12:58:52;;;;;;;7.55;6.93;;;33.30;19.80;;;;;;4951933;29;20246;-62
2022/03/24 13:01:18;;;;;;;6.10;5.57;;;33.00;19.10;;;;;;4935831;29;20194;-62
2022/03/24 13:03:44;;;;;;;6.50;5.90;;;32.30;19.90;;;;;;4951857;29;20182;-60
2022/03/24 13:06:12;;;;;;;6.68;6.13;;;32.30;20.70;;;;;;4951311;29;20702;-62
2022/03/24 13:08:37;;;;;;;7.35;6.63;;;32.60;18.50;;;;;;4951758;29;20171;-59
2022/03/24 13:11:04;;;;;;;7.15;6.45;;;32.60;19.50;;;;;;4963882;28;20209;-58
2022/03/24 13:13:30;;;;;;;7.40;6.80;;;32.60;18.40;;;;;;5051674;28;20680;-61
2022/03/24 13:15:56;;;;;;;7.13;6.47;;;32.60;19.60;;;;;;5052037;28;20304;-60